sensor_id;sensor_type;location;lat;lon;timestamp;noise_LAeq;noise_LA_min;noise_LA_max;noise_LA01;noise_LA95
57439;Laerm;43282;47.188;8.896;2023-06-19T00:01:57;48.62;38.67;64.38;;
57439;Laerm;43282;47.188;8.896;2023-06-19T00:04:23;44.68;38.37;58.52;;
57439;Laerm;43282;47.188;8.896;2023-06-19T00:06:48;43.34;38.21;58.27;;
57439;Laerm;43282;47.188;8.896;2023-06-19T00:09:13;45.41;38.37;60.44;;
57439;Laerm;43282;47.188;8.896;2023-06-19T00:11:39;42.93;36.20;53.57;;
57439;Laerm;43282;47.188;8.896;2023-06-19T00:14:04;43.87;37.88;56.87;;
57439;Laerm;43282;47.188;8.896;2023-06-19T00:16:30;44.06;38.67;54.34;;
57439;Laerm;43282;47.188;8.896;2023-06-19T00:18:55;41.76;38.21;54.34;;
57439;Laerm;43282;47.188;8.896;2023-06-19T00:21:23;43.65;38.21;55.20;;
57439;Laerm;43282;47.188;8.896;2023-06-19T00:23:52;45.61;36.20;61.14;;
57439;Laerm;43282;47.188;8.896;2023-06-19T00:26:18;46.71;38.52;63.27;;
57439;Laerm;43282;47.188;8.896;2023-06-19T00:28:46;45.81;37.70;60.06;;
57439;Laerm;43282;47.188;8.896;2023-06-19T00:31:12;41.29;36.91;45.75;;
57439;Laerm;43282;47.188;8.896;2023-06-19T00:33:39;45.17;37.70;60.43;;
57439;Laerm;43282;47.188;8.896;2023-06-19T00:36:11;43.47;37.52;58.95;;
57439;Laerm;43282;47.188;8.896;2023-06-19T00:38:37;42.32;36.91;50.55;;
57439;Laerm;43282;47.188;8.896;2023-06-19T00:41:03;44.30;38.21;56.25;;
57439;Laerm;43282;47.188;8.896;2023-06-19T00:43:28;46.20;38.05;62.36;;
57439;Laerm;43282;47.188;8.896;2023-06-19T00:45:55;43.05;36.91;50.99;;
57439;Laerm;43282;47.188;8.896;2023-06-19T00:48:21;42.44;37.12;50.26;;
57439;Laerm;43282;47.188;8.896;2023-06-19T00:50:46;43.21;37.52;56.42;;
57439;Laerm;43282;47.188;8.896;2023-06-19T00:53:12;42.37;35.94;54.10;;
57439;Laerm;43282;47.188;8.896;2023-06-19T00:55:38;42.20;36.45;49.77;;
57439;Laerm;43282;47.188;8.896;2023-06-19T00:58:03;42.42;37.12;53.33;;
57439;Laerm;43282;47.188;8.896;2023-06-19T01:00:29;47.99;38.37;64.64;;
57439;Laerm;43282;47.188;8.896;2023-06-19T01:02:54;40.82;37.12;44.87;;
57439;Laerm;43282;47.188;8.896;2023-06-19T01:05:19;42.96;37.12;60.07;;
57439;Laerm;43282;47.188;8.896;2023-06-19T01:07:47;41.18;37.52;50.83;;
57439;Laerm;43282;47.188;8.896;2023-06-19T01:10:21;45.76;38.52;64.98;;
57439;Laerm;43282;47.188;8.896;2023-06-19T01:12:53;46.92;37.70;63.78;;
57439;Laerm;43282;47.188;8.896;2023-06-19T01:15:20;44.35;37.12;56.19;;
57439;Laerm;43282;47.188;8.896;2023-06-19T01:17:47;45.14;38.52;56.65;;
57439;Laerm;43282;47.188;8.896;2023-06-19T01:20:12;43.77;37.70;57.48;;
57439;Laerm;43282;47.188;8.896;2023-06-19T01:22:38;44.95;38.52;57.93;;
57439;Laerm;43282;47.188;8.896;2023-06-19T01:25:04;45.55;37.12;59.59;;
57439;Laerm;43282;47.188;8.896;2023-06-19T01:27:30;44.13;38.37;58.70;;
57439;Laerm;43282;47.188;8.896;2023-06-19T01:29:59;47.17;37.53;61.41;;
57439;Laerm;43282;47.188;8.896;2023-06-19T01:32:30;42.97;37.32;56.21;;
57439;Laerm;43282;47.188;8.896;2023-06-19T01:34:57;44.14;37.32;56.99;;
57439;Laerm;43282;47.188;8.896;2023-06-19T01:37:23;47.68;39.34;58.78;;
57439;Laerm;43282;47.188;8.896;2023-06-19T01:39:52;44.64;38.95;55.63;;
57439;Laerm;43282;47.188;8.896;2023-06-19T01:42:19;45.15;40.33;57.04;;
57439;Laerm;43282;47.188;8.896;2023-06-19T01:44:44;43.66;37.70;56.77;;
57439;Laerm;43282;47.188;8.896;2023-06-19T01:47:11;43.75;37.88;56.91;;
57439;Laerm;43282;47.188;8.896;2023-06-19T01:49:36;45.25;36.91;60.83;;
57439;Laerm;43282;47.188;8.896;2023-06-19T01:52:02;44.21;36.45;56.87;;
57439;Laerm;43282;47.188;8.896;2023-06-19T01:54:27;49.74;37.70;61.53;;
57439;Laerm;43282;47.188;8.896;2023-06-19T01:56:52;44.73;37.70;58.47;;
57439;Laerm;43282;47.188;8.896;2023-06-19T01:59:18;47.47;38.67;61.09;;
57439;Laerm;43282;47.188;8.896;2023-06-19T02:01:43;45.24;37.52;60.04;;
57439;Laerm;43282;47.188;8.896;2023-06-19T02:04:08;44.27;38.67;61.04;;
57439;Laerm;43282;47.188;8.896;2023-06-19T02:06:34;46.40;39.21;62.53;;
57439;Laerm;43282;47.188;8.896;2023-06-19T02:08:59;46.76;38.37;61.03;;
57439;Laerm;43282;47.188;8.896;2023-06-19T02:11:24;44.87;37.32;55.27;;
57439;Laerm;43282;47.188;8.896;2023-06-19T02:13:49;45.19;37.70;57.37;;
57439;Laerm;43282;47.188;8.896;2023-06-19T02:16:15;47.27;39.34;63.50;;
57439;Laerm;43282;47.188;8.896;2023-06-19T02:18:40;48.20;38.81;60.83;;
57439;Laerm;43282;47.188;8.896;2023-06-19T02:21:05;50.24;38.95;67.68;;
57439;Laerm;43282;47.188;8.896;2023-06-19T02:23:31;45.04;36.20;60.74;;
57439;Laerm;43282;47.188;8.896;2023-06-19T02:25:56;45.14;37.52;56.70;;
57439;Laerm;43282;47.188;8.896;2023-06-19T02:28:21;46.14;39.58;58.98;;
57439;Laerm;43282;47.188;8.896;2023-06-19T02:30:46;46.89;40.13;57.82;;
57439;Laerm;43282;47.188;8.896;2023-06-19T02:33:12;49.66;40.80;62.42;;
57439;Laerm;43282;47.188;8.896;2023-06-19T02:35:38;47.33;39.34;58.14;;
57439;Laerm;43282;47.188;8.896;2023-06-19T02:38:03;48.53;40.43;63.14;;
57439;Laerm;43282;47.188;8.896;2023-06-19T02:40:29;45.57;40.43;56.99;;
57439;Laerm;43282;47.188;8.896;2023-06-19T02:42:55;44.64;36.91;59.31;;
57439;Laerm;43282;47.188;8.896;2023-06-19T02:45:20;46.78;37.52;62.15;;
57439;Laerm;43282;47.188;8.896;2023-06-19T02:47:46;43.50;38.67;58.24;;
57439;Laerm;43282;47.188;8.896;2023-06-19T02:50:11;49.52;40.03;66.95;;
57439;Laerm;43282;47.188;8.896;2023-06-19T02:52:36;46.84;39.92;60.49;;
57439;Laerm;43282;47.188;8.896;2023-06-19T02:55:01;43.54;39.70;58.83;;
57439;Laerm;43282;47.188;8.896;2023-06-19T02:57:27;47.17;41.38;69.48;;
57439;Laerm;43282;47.188;8.896;2023-06-19T02:59:52;44.87;40.71;59.36;;
57439;Laerm;43282;47.188;8.896;2023-06-19T03:02:18;51.68;41.22;65.54;;
57439;Laerm;43282;47.188;8.896;2023-06-19T03:04:43;52.95;42.03;70.06;;
57439;Laerm;43282;47.188;8.896;2023-06-19T03:07:09;54.60;43.39;71.94;;
57439;Laerm;43282;47.188;8.896;2023-06-19T03:09:34;52.05;42.29;62.79;;
57439;Laerm;43282;47.188;8.896;2023-06-19T03:11:59;51.36;42.98;62.41;;
57439;Laerm;43282;47.188;8.896;2023-06-19T03:14:25;53.63;43.54;67.79;;
57439;Laerm;43282;47.188;8.896;2023-06-19T03:16:50;54.43;43.54;68.55;;
57439;Laerm;43282;47.188;8.896;2023-06-19T03:19:15;52.98;44.23;68.47;;
57439;Laerm;43282;47.188;8.896;2023-06-19T03:21:41;52.40;43.58;66.94;;
57439;Laerm;43282;47.188;8.896;2023-06-19T03:24:06;55.44;43.81;71.48;;
57439;Laerm;43282;47.188;8.896;2023-06-19T03:26:31;52.64;43.94;63.94;;
57439;Laerm;43282;47.188;8.896;2023-06-19T03:28:57;55.53;44.39;70.41;;
57439;Laerm;43282;47.188;8.896;2023-06-19T03:31:22;53.69;43.60;65.97;;
57439;Laerm;43282;47.188;8.896;2023-06-19T03:33:47;52.53;42.53;65.75;;
57439;Laerm;43282;47.188;8.896;2023-06-19T03:36:13;54.62;41.38;70.97;;
57439;Laerm;43282;47.188;8.896;2023-06-19T03:38:38;55.73;41.89;67.39;;
57439;Laerm;43282;47.188;8.896;2023-06-19T03:41:03;52.76;41.14;63.40;;
57439;Laerm;43282;47.188;8.896;2023-06-19T03:43:29;53.69;42.82;65.55;;
57439;Laerm;43282;47.188;8.896;2023-06-19T03:45:54;53.39;42.29;68.08;;
57439;Laerm;43282;47.188;8.896;2023-06-19T03:48:19;51.21;42.41;65.51;;
57439;Laerm;43282;47.188;8.896;2023-06-19T03:50:44;55.17;44.73;66.11;;
57439;Laerm;43282;47.188;8.896;2023-06-19T03:53:10;53.29;43.54;64.52;;
57439;Laerm;43282;47.188;8.896;2023-06-19T03:55:35;55.65;43.63;66.95;;
57439;Laerm;43282;47.188;8.896;2023-06-19T03:58:00;54.65;43.54;66.22;;
57439;Laerm;43282;47.188;8.896;2023-06-19T04:00:26;53.78;44.87;64.60;;
57439;Laerm;43282;47.188;8.896;2023-06-19T04:02:51;56.74;46.76;66.16;;
57439;Laerm;43282;47.188;8.896;2023-06-19T04:05:16;55.85;46.38;69.18;;
57439;Laerm;43282;47.188;8.896;2023-06-19T04:07:42;54.61;45.36;66.02;;
57439;Laerm;43282;47.188;8.896;2023-06-19T04:10:07;53.11;43.94;62.25;;
57439;Laerm;43282;47.188;8.896;2023-06-19T04:12:33;55.17;43.72;68.51;;
57439;Laerm;43282;47.188;8.896;2023-06-19T04:14:58;51.97;42.35;67.04;;
57439;Laerm;43282;47.188;8.896;2023-06-19T04:17:23;56.37;43.54;71.49;;
57439;Laerm;43282;47.188;8.896;2023-06-19T04:19:49;53.28;43.39;66.47;;
57439;Laerm;43282;47.188;8.896;2023-06-19T04:22:14;56.62;43.77;67.46;;
57439;Laerm;43282;47.188;8.896;2023-06-19T04:24:39;55.43;43.29;71.83;;
57439;Laerm;43282;47.188;8.896;2023-06-19T04:27:05;56.07;44.51;68.57;;
57439;Laerm;43282;47.188;8.896;2023-06-19T04:29:30;55.15;44.47;65.61;;
57439;Laerm;43282;47.188;8.896;2023-06-19T04:32:00;55.12;45.07;65.44;;
57439;Laerm;43282;47.188;8.896;2023-06-19T04:34:25;57.80;45.54;69.81;;
57439;Laerm;43282;47.188;8.896;2023-06-19T04:36:51;55.82;45.04;70.35;;
57439;Laerm;43282;47.188;8.896;2023-06-19T04:39:16;55.59;43.72;70.81;;
57439;Laerm;43282;47.188;8.896;2023-06-19T04:41:44;57.40;43.39;74.76;;
57439;Laerm;43282;47.188;8.896;2023-06-19T04:44:10;58.04;45.42;69.34;;
57439;Laerm;43282;47.188;8.896;2023-06-19T04:46:37;56.94;47.18;67.13;;
57439;Laerm;43282;47.188;8.896;2023-06-19T04:49:03;55.75;48.55;64.34;;
57439;Laerm;43282;47.188;8.896;2023-06-19T04:51:29;56.07;47.81;66.81;;
57439;Laerm;43282;47.188;8.896;2023-06-19T04:53:54;57.46;49.08;67.45;;
57439;Laerm;43282;47.188;8.896;2023-06-19T04:56:20;58.50;47.72;72.75;;
57439;Laerm;43282;47.188;8.896;2023-06-19T04:58:45;55.38;46.33;66.50;;
57439;Laerm;43282;47.188;8.896;2023-06-19T05:01:14;59.65;45.72;77.59;;
57439;Laerm;43282;47.188;8.896;2023-06-19T05:03:40;58.31;45.91;70.81;;
57439;Laerm;43282;47.188;8.896;2023-06-19T05:06:06;58.06;46.62;72.25;;
57439;Laerm;43282;47.188;8.896;2023-06-19T05:08:31;58.80;47.72;75.69;;
57439;Laerm;43282;47.188;8.896;2023-06-19T05:10:57;57.39;45.11;66.45;;
57439;Laerm;43282;47.188;8.896;2023-06-19T05:13:23;56.59;46.52;72.14;;
57439;Laerm;43282;47.188;8.896;2023-06-19T05:15:48;60.21;47.79;73.80;;
57439;Laerm;43282;47.188;8.896;2023-06-19T05:18:13;57.82;48.80;68.24;;
57439;Laerm;43282;47.188;8.896;2023-06-19T05:20:39;58.72;47.08;72.25;;
57439;Laerm;43282;47.188;8.896;2023-06-19T05:23:04;58.11;48.18;72.72;;
57439;Laerm;43282;47.188;8.896;2023-06-19T05:25:29;57.33;48.51;68.43;;
57439;Laerm;43282;47.188;8.896;2023-06-19T05:27:55;62.32;47.59;79.03;;
57439;Laerm;43282;47.188;8.896;2023-06-19T05:30:20;59.43;46.20;87.99;;
57439;Laerm;43282;47.188;8.896;2023-06-19T05:32:45;58.80;46.45;87.65;;
57439;Laerm;43282;47.188;8.896;2023-06-19T05:35:10;57.05;47.04;69.80;;
57439;Laerm;43282;47.188;8.896;2023-06-19T05:37:36;59.23;47.38;70.88;;
57439;Laerm;43282;47.188;8.896;2023-06-19T05:40:03;60.82;45.33;78.20;;
57439;Laerm;43282;47.188;8.896;2023-06-19T05:42:28;64.00;46.71;80.41;;
57439;Laerm;43282;47.188;8.896;2023-06-19T05:44:54;58.30;47.77;80.30;;
57439;Laerm;43282;47.188;8.896;2023-06-19T05:47:19;59.60;44.35;74.86;;
57439;Laerm;43282;47.188;8.896;2023-06-19T05:49:45;57.80;45.33;68.10;;
57439;Laerm;43282;47.188;8.896;2023-06-19T05:52:11;60.78;47.67;70.25;;
57439;Laerm;43282;47.188;8.896;2023-06-19T05:54:36;59.11;48.96;69.72;;
57439;Laerm;43282;47.188;8.896;2023-06-19T05:57:01;57.32;46.02;67.45;;
57439;Laerm;43282;47.188;8.896;2023-06-19T05:59:26;60.37;46.69;76.62;;
57439;Laerm;43282;47.188;8.896;2023-06-19T06:01:52;58.66;46.20;67.81;;
57439;Laerm;43282;47.188;8.896;2023-06-19T06:04:18;60.35;46.05;73.20;;
57439;Laerm;43282;47.188;8.896;2023-06-19T06:06:43;59.86;45.54;73.49;;
57439;Laerm;43282;47.188;8.896;2023-06-19T06:09:09;62.54;44.58;76.81;;
57439;Laerm;43282;47.188;8.896;2023-06-19T06:11:37;59.32;45.14;75.31;;
57439;Laerm;43282;47.188;8.896;2023-06-19T06:14:02;57.71;45.17;71.21;;
57439;Laerm;43282;47.188;8.896;2023-06-19T06:16:27;52.63;43.99;63.97;;
57439;Laerm;43282;47.188;8.896;2023-06-19T06:18:53;58.53;44.58;68.98;;
57439;Laerm;43282;47.188;8.896;2023-06-19T06:21:18;58.42;46.62;65.65;;
57439;Laerm;43282;47.188;8.896;2023-06-19T06:23:43;58.49;47.52;68.69;;
57439;Laerm;43282;47.188;8.896;2023-06-19T06:26:10;59.59;46.62;73.64;;
57439;Laerm;43282;47.188;8.896;2023-06-19T06:28:35;59.92;44.43;74.73;;
57439;Laerm;43282;47.188;8.896;2023-06-19T06:31:00;56.87;44.43;70.44;;
57439;Laerm;43282;47.188;8.896;2023-06-19T06:33:26;57.39;43.72;73.89;;
57439;Laerm;43282;47.188;8.896;2023-06-19T06:35:53;55.50;43.86;66.52;;
57439;Laerm;43282;47.188;8.896;2023-06-19T06:38:18;55.47;44.94;65.63;;
57439;Laerm;43282;47.188;8.896;2023-06-19T06:40:44;54.75;44.65;67.86;;
57439;Laerm;43282;47.188;8.896;2023-06-19T06:43:09;56.13;46.52;68.91;;
57439;Laerm;43282;47.188;8.896;2023-06-19T06:45:34;56.24;44.80;69.18;;
57439;Laerm;43282;47.188;8.896;2023-06-19T06:48:02;55.11;44.83;64.44;;
57439;Laerm;43282;47.188;8.896;2023-06-19T06:50:28;55.95;44.54;65.43;;
57439;Laerm;43282;47.188;8.896;2023-06-19T06:52:53;54.86;44.19;66.19;;
57439;Laerm;43282;47.188;8.896;2023-06-19T06:55:18;57.03;45.54;75.53;;
57439;Laerm;43282;47.188;8.896;2023-06-19T06:57:44;52.90;44.54;63.60;;
57439;Laerm;43282;47.188;8.896;2023-06-19T07:00:09;57.34;43.29;73.38;;
57439;Laerm;43282;47.188;8.896;2023-06-19T07:02:37;57.17;43.94;70.57;;
57439;Laerm;43282;47.188;8.896;2023-06-19T07:05:02;53.37;43.14;64.98;;
57439;Laerm;43282;47.188;8.896;2023-06-19T07:07:27;56.51;45.33;69.63;;
57439;Laerm;43282;47.188;8.896;2023-06-19T07:09:52;54.24;44.27;70.81;;
57439;Laerm;43282;47.188;8.896;2023-06-19T07:12:18;54.01;43.63;65.11;;
57439;Laerm;43282;47.188;8.896;2023-06-19T07:14:43;56.86;45.11;69.40;;
57439;Laerm;43282;47.188;8.896;2023-06-19T07:17:08;54.16;44.47;66.23;;
57439;Laerm;43282;47.188;8.896;2023-06-19T07:19:34;54.26;44.03;66.07;;
57439;Laerm;43282;47.188;8.896;2023-06-19T07:21:59;57.64;44.83;73.54;;
57439;Laerm;43282;47.188;8.896;2023-06-19T07:24:24;57.87;44.39;70.00;;
57439;Laerm;43282;47.188;8.896;2023-06-19T07:26:50;54.19;45.11;65.49;;
57439;Laerm;43282;47.188;8.896;2023-06-19T07:29:15;55.59;45.63;65.06;;
57439;Laerm;43282;47.188;8.896;2023-06-19T07:31:40;58.33;46.23;72.42;;
57439;Laerm;43282;47.188;8.896;2023-06-19T07:34:08;57.78;47.36;68.76;;
57439;Laerm;43282;47.188;8.896;2023-06-19T07:36:33;59.80;44.83;75.70;;
57439;Laerm;43282;47.188;8.896;2023-06-19T07:38:59;57.23;48.21;69.03;;
57439;Laerm;43282;47.188;8.896;2023-06-19T07:41:24;61.59;48.49;84.51;;
57439;Laerm;43282;47.188;8.896;2023-06-19T07:43:49;58.72;47.40;82.99;;
57439;Laerm;43282;47.188;8.896;2023-06-19T07:46:15;56.96;46.84;68.58;;
57439;Laerm;43282;47.188;8.896;2023-06-19T07:48:40;58.33;48.25;70.20;;
57439;Laerm;43282;47.188;8.896;2023-06-19T07:51:05;56.76;47.57;69.27;;
57439;Laerm;43282;47.188;8.896;2023-06-19T07:53:31;55.40;49.06;69.82;;
57439;Laerm;43282;47.188;8.896;2023-06-19T07:55:56;58.94;48.37;72.60;;
57439;Laerm;43282;47.188;8.896;2023-06-19T07:58:21;56.56;46.48;68.91;;
57439;Laerm;43282;47.188;8.896;2023-06-19T08:00:47;56.86;47.79;69.51;;
57439;Laerm;43282;47.188;8.896;2023-06-19T08:03:12;56.98;45.99;69.82;;
57439;Laerm;43282;47.188;8.896;2023-06-19T08:05:37;59.68;45.75;79.37;;
57439;Laerm;43282;47.188;8.896;2023-06-19T08:08:03;57.90;47.04;73.98;;
57439;Laerm;43282;47.188;8.896;2023-06-19T08:10:28;60.59;46.07;76.56;;
57439;Laerm;43282;47.188;8.896;2023-06-19T08:12:54;60.62;46.84;78.03;;
57439;Laerm;43282;47.188;8.896;2023-06-19T08:15:19;55.98;45.42;68.22;;
57439;Laerm;43282;47.188;8.896;2023-06-19T08:17:44;56.81;43.99;74.14;;
57439;Laerm;43282;47.188;8.896;2023-06-19T08:20:09;54.31;45.33;65.08;;
57439;Laerm;43282;47.188;8.896;2023-06-19T08:22:35;60.24;45.01;73.44;;
57439;Laerm;43282;47.188;8.896;2023-06-19T08:25:01;60.86;45.80;79.15;;
57439;Laerm;43282;47.188;8.896;2023-06-19T08:27:26;60.97;44.15;77.78;;
57439;Laerm;43282;47.188;8.896;2023-06-19T08:29:51;56.10;43.58;70.45;;
57439;Laerm;43282;47.188;8.896;2023-06-19T08:32:17;56.39;43.49;73.68;;
57439;Laerm;43282;47.188;8.896;2023-06-19T08:34:42;54.17;42.98;68.41;;
57439;Laerm;43282;47.188;8.896;2023-06-19T08:37:07;60.61;43.86;78.05;;
57439;Laerm;43282;47.188;8.896;2023-06-19T08:39:33;64.17;43.99;81.85;;
57439;Laerm;43282;47.188;8.896;2023-06-19T08:41:59;54.47;44.27;67.38;;
57439;Laerm;43282;47.188;8.896;2023-06-19T08:44:24;53.45;43.86;66.93;;
57439;Laerm;43282;47.188;8.896;2023-06-19T08:46:49;53.72;43.81;69.26;;
57439;Laerm;43282;47.188;8.896;2023-06-19T08:49:15;56.46;45.39;66.23;;
57439;Laerm;43282;47.188;8.896;2023-06-19T08:51:40;57.14;43.89;71.31;;
57439;Laerm;43282;47.188;8.896;2023-06-19T08:54:06;54.87;44.76;68.12;;
57439;Laerm;43282;47.188;8.896;2023-06-19T08:56:32;57.18;44.35;73.07;;
57439;Laerm;43282;47.188;8.896;2023-06-19T08:59:08;53.55;42.93;70.24;;
57439;Laerm;43282;47.188;8.896;2023-06-19T09:01:34;57.38;43.94;72.11;;
57439;Laerm;43282;47.188;8.896;2023-06-19T09:03:59;59.89;45.60;75.69;;
57439;Laerm;43282;47.188;8.896;2023-06-19T09:06:25;58.66;42.88;74.15;;
57439;Laerm;43282;47.188;8.896;2023-06-19T09:08:59;56.12;43.60;66.93;;
57439;Laerm;43282;47.188;8.896;2023-06-19T09:11:26;55.60;42.98;76.28;;
57439;Laerm;43282;47.188;8.896;2023-06-19T09:13:57;55.49;43.09;69.81;;
57439;Laerm;43282;47.188;8.896;2023-06-19T09:16:23;55.32;42.76;68.09;;
57439;Laerm;43282;47.188;8.896;2023-06-19T09:18:49;62.31;48.98;70.65;;
57439;Laerm;43282;47.188;8.896;2023-06-19T09:21:17;63.22;49.69;74.17;;
57439;Laerm;43282;47.188;8.896;2023-06-19T09:23:47;60.42;47.26;72.96;;
57439;Laerm;43282;47.188;8.896;2023-06-19T09:26:15;62.47;46.87;75.31;;
57439;Laerm;43282;47.188;8.896;2023-06-19T09:28:41;55.34;45.04;64.46;;
57439;Laerm;43282;47.188;8.896;2023-06-19T09:31:10;54.35;43.34;68.14;;
57439;Laerm;43282;47.188;8.896;2023-06-19T09:33:36;55.92;44.11;75.21;;
57439;Laerm;43282;47.188;8.896;2023-06-19T09:36:03;54.77;42.65;69.65;;
57439;Laerm;43282;47.188;8.896;2023-06-19T09:38:32;59.00;44.35;76.32;;
57439;Laerm;43282;47.188;8.896;2023-06-19T09:40:58;54.16;43.05;66.45;;
57439;Laerm;43282;47.188;8.896;2023-06-19T09:43:46;61.08;45.91;76.24;;
57439;Laerm;43282;47.188;8.896;2023-06-19T09:46:10;59.33;47.81;72.57;;
57439;Laerm;43282;47.188;8.896;2023-06-19T09:48:39;59.29;46.10;69.91;;
57439;Laerm;43282;47.188;8.896;2023-06-19T09:53:37;55.95;44.07;70.32;;
57439;Laerm;43282;47.188;8.896;2023-06-19T09:56:02;61.93;43.34;78.57;;
57439;Laerm;43282;47.188;8.896;2023-06-19T09:58:28;54.46;43.24;65.25;;
57439;Laerm;43282;47.188;8.896;2023-06-19T10:00:54;62.72;44.76;80.24;;
57439;Laerm;43282;47.188;8.896;2023-06-19T10:03:20;56.07;43.77;69.46;;
57439;Laerm;43282;47.188;8.896;2023-06-19T10:05:45;57.96;44.11;71.29;;
57439;Laerm;43282;47.188;8.896;2023-06-19T10:08:11;54.48;44.65;63.78;;
57439;Laerm;43282;47.188;8.896;2023-06-19T10:10:36;56.23;43.63;76.39;;
57439;Laerm;43282;47.188;8.896;2023-06-19T10:13:13;64.93;42.22;84.39;;
57439;Laerm;43282;47.188;8.896;2023-06-19T10:15:41;56.70;43.99;70.37;;
57439;Laerm;43282;47.188;8.896;2023-06-19T10:18:16;54.44;42.19;65.01;;
57439;Laerm;43282;47.188;8.896;2023-06-19T10:20:41;54.51;42.71;66.97;;
57439;Laerm;43282;47.188;8.896;2023-06-19T10:23:08;55.49;42.65;74.45;;
57439;Laerm;43282;47.188;8.896;2023-06-19T10:25:35;52.12;42.93;64.61;;
57439;Laerm;43282;47.188;8.896;2023-06-19T10:28:01;49.32;42.47;67.13;;
57439;Laerm;43282;47.188;8.896;2023-06-19T10:30:27;53.95;43.49;69.60;;
57439;Laerm;43282;47.188;8.896;2023-06-19T10:32:52;54.94;43.29;68.03;;
57439;Laerm;43282;47.188;8.896;2023-06-19T10:35:18;53.08;42.71;67.06;;
57439;Laerm;43282;47.188;8.896;2023-06-19T10:37:46;53.76;43.04;64.56;;
57439;Laerm;43282;47.188;8.896;2023-06-19T10:40:11;53.08;42.22;68.56;;
57439;Laerm;43282;47.188;8.896;2023-06-19T10:42:38;52.72;43.04;66.44;;
57439;Laerm;43282;47.188;8.896;2023-06-19T10:45:07;56.77;42.22;73.83;;
57439;Laerm;43282;47.188;8.896;2023-06-19T10:47:34;56.19;42.58;70.96;;
57439;Laerm;43282;47.188;8.896;2023-06-19T10:49:59;54.54;43.14;65.14;;
57439;Laerm;43282;47.188;8.896;2023-06-19T10:52:24;56.26;43.68;67.18;;
57439;Laerm;43282;47.188;8.896;2023-06-19T10:54:56;56.13;44.07;66.62;;
57439;Laerm;43282;47.188;8.896;2023-06-19T10:57:31;56.40;43.29;68.85;;
57439;Laerm;43282;47.188;8.896;2023-06-19T10:59:57;54.45;43.72;65.64;;
57439;Laerm;43282;47.188;8.896;2023-06-19T11:02:23;58.40;47.37;74.74;;
57439;Laerm;43282;47.188;8.896;2023-06-19T11:04:48;55.90;43.29;68.73;;
57439;Laerm;43282;47.188;8.896;2023-06-19T11:07:14;55.71;43.39;67.28;;
57439;Laerm;43282;47.188;8.896;2023-06-19T11:09:39;54.38;42.98;66.34;;
57439;Laerm;43282;47.188;8.896;2023-06-19T11:12:04;58.66;44.11;74.21;;
57439;Laerm;43282;47.188;8.896;2023-06-19T11:14:32;59.54;47.55;70.38;;
57439;Laerm;43282;47.188;8.896;2023-06-19T11:17:04;58.90;44.97;68.27;;
57439;Laerm;43282;47.188;8.896;2023-06-19T11:19:30;58.76;44.19;70.20;;
57439;Laerm;43282;47.188;8.896;2023-06-19T11:21:57;62.06;43.39;79.51;;
57439;Laerm;43282;47.188;8.896;2023-06-19T11:24:22;56.78;45.01;71.85;;
57439;Laerm;43282;47.188;8.896;2023-06-19T11:26:49;60.17;51.35;70.39;;
57439;Laerm;43282;47.188;8.896;2023-06-19T11:31:40;58.93;49.83;72.87;;
57439;Laerm;43282;47.188;8.896;2023-06-19T11:34:05;57.69;43.34;70.57;;
57439;Laerm;43282;47.188;8.896;2023-06-19T11:36:31;55.47;44.73;66.44;;
57439;Laerm;43282;47.188;8.896;2023-06-19T11:38:56;53.01;42.53;69.49;;
57439;Laerm;43282;47.188;8.896;2023-06-19T11:41:25;53.30;42.22;62.10;;
57439;Laerm;43282;47.188;8.896;2023-06-19T11:43:57;53.38;43.39;64.80;;
57439;Laerm;43282;47.188;8.896;2023-06-19T11:46:27;55.54;43.24;70.56;;
57439;Laerm;43282;47.188;8.896;2023-06-19T11:48:52;57.69;42.53;72.89;;
57439;Laerm;43282;47.188;8.896;2023-06-19T11:51:18;55.44;42.98;66.95;;
57439;Laerm;43282;47.188;8.896;2023-06-19T11:53:43;57.95;43.19;73.78;;
57439;Laerm;43282;47.188;8.896;2023-06-19T11:56:08;55.07;43.99;68.10;;
57439;Laerm;43282;47.188;8.896;2023-06-19T11:58:34;55.54;42.47;66.94;;
57439;Laerm;43282;47.188;8.896;2023-06-19T12:00:59;56.01;41.82;69.63;;
57439;Laerm;43282;47.188;8.896;2023-06-19T12:03:24;55.14;42.98;64.78;;
57439;Laerm;43282;47.188;8.896;2023-06-19T12:05:50;58.26;42.98;80.20;;
57439;Laerm;43282;47.188;8.896;2023-06-19T12:08:15;57.83;45.17;66.98;;
57439;Laerm;43282;47.188;8.896;2023-06-19T12:10:41;59.36;45.14;70.81;;
57439;Laerm;43282;47.188;8.896;2023-06-19T12:13:06;56.70;43.24;66.58;;
57439;Laerm;43282;47.188;8.896;2023-06-19T12:15:32;58.26;44.03;70.38;;
57439;Laerm;43282;47.188;8.896;2023-06-19T12:17:57;60.49;42.82;78.74;;
57439;Laerm;43282;47.188;8.896;2023-06-19T12:20:23;54.04;43.58;64.69;;
57439;Laerm;43282;47.188;8.896;2023-06-19T12:22:49;57.97;43.68;75.82;;
57439;Laerm;43282;47.188;8.896;2023-06-19T12:25:14;52.84;42.93;64.26;;
57439;Laerm;43282;47.188;8.896;2023-06-19T12:27:39;54.65;43.34;67.71;;
57439;Laerm;43282;47.188;8.896;2023-06-19T12:30:05;55.04;42.88;68.57;;
57439;Laerm;43282;47.188;8.896;2023-06-19T12:32:31;60.10;42.98;78.16;;
57439;Laerm;43282;47.188;8.896;2023-06-19T12:34:56;52.49;42.03;63.31;;
57439;Laerm;43282;47.188;8.896;2023-06-19T12:37:21;56.50;41.68;70.05;;
57439;Laerm;43282;47.188;8.896;2023-06-19T12:39:47;52.53;42.93;75.70;;
57439;Laerm;43282;47.188;8.896;2023-06-19T12:42:13;52.52;42.98;64.97;;
57439;Laerm;43282;47.188;8.896;2023-06-19T12:44:41;51.91;42.41;61.59;;
57439;Laerm;43282;47.188;8.896;2023-06-19T12:47:07;56.35;43.44;71.27;;
57439;Laerm;43282;47.188;8.896;2023-06-19T12:49:33;58.83;42.93;73.56;;
57439;Laerm;43282;47.188;8.896;2023-06-19T12:51:58;53.44;42.53;65.75;;
57439;Laerm;43282;47.188;8.896;2023-06-19T12:54:23;56.66;43.14;72.08;;
57439;Laerm;43282;47.188;8.896;2023-06-19T12:56:49;58.32;43.19;70.81;;
57439;Laerm;43282;47.188;8.896;2023-06-19T12:59:15;57.89;42.98;72.61;;
57439;Laerm;43282;47.188;8.896;2023-06-19T13:01:41;54.16;41.96;69.19;;
57439;Laerm;43282;47.188;8.896;2023-06-19T13:04:06;57.10;42.65;72.28;;
57439;Laerm;43282;47.188;8.896;2023-06-19T13:06:31;59.04;43.24;74.47;;
57439;Laerm;43282;47.188;8.896;2023-06-19T13:08:57;58.17;44.19;73.21;;
57439;Laerm;43282;47.188;8.896;2023-06-19T13:11:22;56.83;43.49;71.43;;
57439;Laerm;43282;47.188;8.896;2023-06-19T13:13:48;57.93;43.14;72.06;;
57439;Laerm;43282;47.188;8.896;2023-06-19T13:16:13;57.19;43.72;72.48;;
57439;Laerm;43282;47.188;8.896;2023-06-19T13:18:40;53.52;42.35;66.21;;
57439;Laerm;43282;47.188;8.896;2023-06-19T13:21:06;55.53;43.29;70.05;;
57439;Laerm;43282;47.188;8.896;2023-06-19T13:23:31;51.45;42.76;61.59;;
57439;Laerm;43282;47.188;8.896;2023-06-19T13:25:57;55.58;42.88;67.73;;
57439;Laerm;43282;47.188;8.896;2023-06-19T13:28:22;62.20;43.63;76.85;;
57439;Laerm;43282;47.188;8.896;2023-06-19T13:30:47;56.76;43.04;72.73;;
57439;Laerm;43282;47.188;8.896;2023-06-19T13:33:12;53.00;42.76;64.48;;
57439;Laerm;43282;47.188;8.896;2023-06-19T13:35:38;54.83;43.24;67.75;;
57439;Laerm;43282;47.188;8.896;2023-06-19T13:38:03;59.22;43.81;74.39;;
57439;Laerm;43282;47.188;8.896;2023-06-19T13:40:28;59.40;43.54;77.51;;
57439;Laerm;43282;47.188;8.896;2023-06-19T13:42:53;55.52;43.14;71.93;;